Paso de Indios, Argentina
Current Conditions -  °F | °C
As of 10:00 AM on Monday 26 Jan 2015 (Local Time) from SCFT Reporting Station
Rain Showers Rain Showers  
Wind Chill: 61°   Ceiling: 4000
Heat Index: 61°   Visibility: 6mi
Dew Point: 52°   Wind: 2mph
Humidity: 72%   Direction: NA
Pressure: 29.83"   Gusts: NA
Location:  43.86°S, 69.05°W
Report Text: SCFT 261300Z VRB02KT 9999 VCSH SCT016 BKN040 16/11 Q1010
Loading
Personal Weather Stations






























Interactive Weather Map New forecast layout! Learn more

10-Day Weather Forecast

Advertisements
Track Severe Weather on mobile